Time;durP1;ratioP1;P1;durP2;ratioP2;P2;SDS_P1;SDS_P2;PMS_P1;PMS_P2;Temp;Humidity;BMP_temperature;BMP_pressure;BME280_temperature;BME280_humidity;BME280_pressure;Samples;Min_cycle;Max_cycle;Signal;HPM_P1;HPM_P2
2021/12/10 00:01:26;;;;;;;7.07;4.82;;;1.10;99.90;;;;;;4963034;28;20096;-84
2021/12/10 00:03:57;;;;;;;5.70;4.22;;;1.10;99.90;;;;;;4985365;28;20026;-84
2021/12/10 00:06:44;;;;;;;5.63;4.32;;;1.10;99.90;;;;;;4966032;28;20034;-84
2021/12/10 00:09:15;;;;;;;9.18;4.97;;;1.10;99.90;;;;;;4965498;28;20058;-85
2021/12/10 00:11:51;;;;;;;7.60;4.88;;;1.00;99.90;;;;;;4965550;28;20113;-85
2021/12/10 00:14:20;;;;;;;9.73;4.65;;;1.00;99.90;;;;;;4967671;28;20085;-85
2021/12/10 00:16:46;;;;;;;5.72;4.70;;;1.00;99.90;;;;;;4983922;28;20030;-84
2021/12/10 00:21:59;;;;;;;9.82;5.28;;;1.00;99.90;;;;;;4986889;28;20042;-84
2021/12/10 00:24:30;;;;;;;9.30;4.85;;;1.00;99.90;;;;;;4965960;28;20023;-85
2021/12/10 00:26:59;;;;;;;6.47;5.07;;;1.00;99.90;;;;;;4975186;28;21574;-84
2021/12/10 00:29:26;;;;;;;7.00;4.65;;;1.00;99.90;;;;;;4968773;28;20031;-84
2021/12/10 00:32:00;;;;;;;7.25;4.43;;;1.00;99.90;;;;;;4961520;28;20034;-85
2021/12/10 00:34:42;;;;;;;5.72;4.32;;;1.00;99.90;;;;;;4962500;28;20046;-84
2021/12/10 00:37:11;;;;;;;6.93;4.47;;;0.90;99.90;;;;;;4976832;28;20038;-85
2021/12/10 00:39:43;;;;;;;4.75;4.30;;;0.80;99.90;;;;;;4966670;28;20027;-84
2021/12/10 00:42:12;;;;;;;5.25;3.85;;;0.80;99.90;;;;;;4963388;28;20133;-84
2021/12/10 00:44:39;;;;;;;7.15;4.63;;;0.70;99.90;;;;;;4979110;28;20030;-84
2021/12/10 00:47:05;;;;;;;5.68;4.13;;;0.80;99.90;;;;;;4964448;28;20073;-84
2021/12/10 00:49:31;;;;;;;9.27;5.25;;;0.70;99.90;;;;;;4958769;28;20022;-84
2021/12/10 00:51:57;;;;;;;16.20;5.72;;;0.70;99.90;;;;;;4962665;28;20030;-85
2021/12/10 00:54:23;;;;;;;9.68;4.82;;;0.70;99.90;;;;;;4948840;28;20038;-85
2021/12/10 00:56:49;;;;;;;5.65;4.00;;;0.70;99.90;;;;;;4965034;28;20557;-84
2021/12/10 00:59:17;;;;;;;12.32;4.90;;;0.70;99.90;;;;;;4963535;28;20065;-84
2021/12/10 01:01:44;;;;;;;6.30;4.10;;;0.70;99.90;;;;;;4978832;28;20038;-84
2021/12/10 01:04:25;;;;;;;6.95;4.78;;;0.70;99.90;;;;;;4969236;28;20031;-84
2021/12/10 01:06:55;;;;;;;6.50;4.68;;;0.70;99.90;;;;;;4983442;28;20434;-84
2021/12/10 01:09:24;;;;;;;4.75;3.90;;;0.60;99.90;;;;;;4949805;28;21225;-84
2021/12/10 01:11:55;;;;;;;8.05;4.60;;;0.60;99.90;;;;;;4961127;28;20157;-84
2021/12/10 01:14:40;;;;;;;8.35;4.47;;;0.50;99.90;;;;;;4966303;28;20037;-84
2021/12/10 01:25:36;;;;;;;7.45;4.50;;;0.40;99.90;;;;;;4978573;28;20108;-84
2021/12/10 01:28:04;;;;;;;6.10;4.35;;;0.50;99.90;;;;;;4964337;28;20029;-84
2021/12/10 01:30:36;;;;;;;16.58;4.03;;;0.50;99.90;;;;;;4967158;28;20034;-84
2021/12/10 01:33:11;;;;;;;5.97;4.57;;;0.40;99.90;;;;;;4964702;28;20022;-84
2021/12/10 01:35:44;;;;;;;5.47;3.85;;;0.40;99.90;;;;;;4975966;28;20145;-84
2021/12/10 01:38:12;;;;;;;5.97;3.85;;;0.40;99.90;;;;;;4958714;28;20039;-85
2021/12/10 01:40:43;;;;;;;6.90;3.83;;;0.30;99.90;;;;;;4962862;28;20526;-84
2021/12/10 01:43:23;;;;;;;7.20;3.13;;;0.20;99.90;;;;;;4959938;28;20042;-84
2021/12/10 01:46:01;;;;;;;5.53;4.40;;;0.20;99.90;;;;;;4969696;28;20038;-85
2021/12/10 01:48:31;;;;;;;7.07;4.05;;;0.10;99.90;;;;;;4956114;28;20031;-84
2021/12/10 01:50:59;;;;;;;7.90;4.03;;;0.00;99.90;;;;;;4947223;28;20070;-84
2021/12/10 01:53:28;;;;;;;8.53;3.43;;;0.00;99.90;;;;;;4967633;28;20035;-84
2021/12/10 01:55:57;;;;;;;5.85;3.50;;;-0.10;99.90;;;;;;4966158;28;21414;-84
2021/12/10 01:58:25;;;;;;;4.22;3.80;;;-0.10;99.90;;;;;;4978278;28;20038;-84
2021/12/10 02:00:59;;;;;;;8.00;4.18;;;-0.10;99.90;;;;;;4967417;28;20538;-84
2021/12/10 02:03:25;;;;;;;5.95;3.65;;;-0.30;99.90;;;;;;4979989;28;20491;-84
2021/12/10 02:05:52;;;;;;;4.55;3.90;;;-0.30;99.90;;;;;;4967146;28;20023;-84
2021/12/10 02:08:18;;;;;;;9.27;4.68;;;-0.30;99.90;;;;;;4963095;28;20039;-84
2021/12/10 02:10:44;;;;;;;7.35;4.15;;;-0.20;99.90;;;;;;4963585;28;20030;-84
2021/12/10 02:13:10;;;;;;;5.85;4.18;;;-0.20;99.90;;;;;;4959835;28;20238;-85
2021/12/10 02:15:37;;;;;;;3.08;2.83;;;-0.20;99.90;;;;;;4958325;28;20031;-84
2021/12/10 02:18:06;;;;;;;7.18;3.75;;;-0.30;99.90;;;;;;4960654;28;20030;-84
2021/12/10 02:20:52;;;;;;;5.50;3.55;;;-0.30;99.90;;;;;;4952284;28;20034;-84
2021/12/10 02:23:19;;;;;;;3.03;2.67;;;-0.40;99.90;;;;;;4960068;28;20096;-84
2021/12/10 02:25:46;;;;;;;4.93;3.47;;;-0.40;99.90;;;;;;4961906;28;20030;-84
2021/12/10 02:28:13;;;;;;;7.20;3.45;;;-0.40;99.90;;;;;;4964600;28;20061;-84
2021/12/10 02:30:41;;;;;;;3.30;3.03;;;-0.40;99.90;;;;;;4946418;28;20094;-84
2021/12/10 02:33:10;;;;;;;5.32;2.75;;;-0.40;99.90;;;;;;4960068;28;20035;-84
2021/12/10 02:35:37;;;;;;;4.28;3.30;;;-0.50;99.90;;;;;;4971860;28;20061;-82
2021/12/10 02:38:05;;;;;;;4.03;3.25;;;-0.50;99.90;;;;;;4962383;28;20104;-83
2021/12/10 02:40:35;;;;;;;4.07;3.08;;;-0.60;99.90;;;;;;4961998;28;20034;-84
2021/12/10 02:43:08;;;;;;;4.53;3.03;;;-0.60;99.90;;;;;;4964184;28;20533;-84
2021/12/10 02:45:35;;;;;;;5.50;2.80;;;-0.60;99.90;;;;;;4950576;28;20042;-84
2021/12/10 02:48:01;;;;;;;2.78;2.42;;;-1.10;99.90;;;;;;4964834;28;20452;-83
2021/12/10 02:50:29;;;;;;;3.72;2.88;;;-1.20;99.90;;;;;;4961741;28;20030;-83
2021/12/10 02:52:57;;;;;;;2.60;2.40;;;-1.20;99.90;;;;;;4963132;28;20483;-83
2021/12/10 02:55:23;;;;;;;3.40;2.25;;;-1.10;99.90;;;;;;4959368;28;21320;-83
2021/12/10 02:57:54;;;;;;;3.65;3.20;;;-1.30;99.90;;;;;;4976270;28;20026;-84
2021/12/10 03:00:25;;;;;;;4.57;2.30;;;-1.50;99.90;;;;;;4961264;28;20398;-83
2021/12/10 03:02:51;;;;;;;2.05;1.88;;;-1.60;99.90;;;;;;4940333;28;20030;-83
2021/12/10 03:05:17;;;;;;;4.20;2.38;;;-1.60;99.90;;;;;;4945376;28;20085;-83
2021/12/10 03:07:43;;;;;;;2.55;2.35;;;-1.60;99.90;;;;;;4947915;28;20114;-83
2021/12/10 03:10:24;;;;;;;1.42;1.40;;;-1.70;99.90;;;;;;4942422;28;20149;-83
2021/12/10 03:12:50;;;;;;;2.60;2.15;;;-1.70;99.90;;;;;;4944709;28;20303;-83
2021/12/10 03:15:21;;;;;;;1.65;1.55;;;-1.50;99.90;;;;;;4947579;28;20030;-83
2021/12/10 03:17:47;;;;;;;1.95;1.77;;;-1.60;99.90;;;;;;4943570;28;20027;-83
2021/12/10 03:20:17;;;;;;;2.10;1.73;;;-1.50;99.90;;;;;;4944352;28;20058;-83
2021/12/10 03:22:44;;;;;;;26.42;3.60;;;-1.50;99.90;;;;;;4946517;28;20520;-84
2021/12/10 03:25:13;;;;;;;3.10;2.83;;;-1.70;99.90;;;;;;4944588;28;20034;-83
2021/12/10 03:27:39;;;;;;;1.65;1.55;;;-1.70;99.90;;;;;;4945821;28;20062;-83
2021/12/10 03:30:10;;;;;;;1.60;1.50;;;-1.70;99.90;;;;;;4959147;28;20054;-83
2021/12/10 03:32:38;;;;;;;2.85;1.92;;;-1.70;99.90;;;;;;4954806;28;20142;-83
2021/12/10 03:35:09;;;;;;;10.40;1.88;;;-1.80;99.90;;;;;;4947172;28;20082;-83
2021/12/10 03:37:37;;;;;;;26.77;2.95;;;-1.90;99.90;;;;;;4943882;28;20660;-83
2021/12/10 03:40:05;;;;;;;2.42;2.25;;;-2.10;99.90;;;;;;4945080;28;20023;-82
2021/12/10 03:42:32;;;;;;;2.45;2.10;;;-2.10;99.90;;;;;;4941819;28;20121;-83
2021/12/10 03:44:58;;;;;;;11.60;2.60;;;-2.00;99.90;;;;;;4945622;28;20030;-83
2021/12/10 03:47:24;;;;;;;3.50;2.33;;;-2.10;99.90;;;;;;4963982;28;20082;-83
2021/12/10 03:49:56;;;;;;;2.47;2.20;;;-2.20;99.90;;;;;;4966315;28;20058;-84
2021/12/10 03:52:22;;;;;;;2.90;2.58;;;-2.20;99.90;;;;;;4956454;28;20042;-83
2021/12/10 03:54:49;;;;;;;9.52;2.38;;;-2.20;99.90;;;;;;4960440;28;20022;-85
2021/12/10 03:57:15;;;;;;;2.22;2.03;;;-2.20;99.90;;;;;;4932103;28;20054;-84
2021/12/10 03:59:41;;;;;;;1.83;1.73;;;-2.20;99.90;;;;;;4943898;28;20039;-84
2021/12/10 04:02:08;;;;;;;2.10;2.00;;;-2.20;99.90;;;;;;4945236;28;20142;-84
2021/12/10 04:04:48;;;;;;;3.30;1.92;;;-2.20;99.90;;;;;;4950189;28;20035;-84
2021/12/10 04:07:22;;;;;;;3.22;2.72;;;-2.20;99.90;;;;;;4945522;28;20046;-83
2021/12/10 04:09:49;;;;;;;3.92;2.45;;;-2.20;99.90;;;;;;4945840;28;20034;-84
2021/12/10 04:12:17;;;;;;;2.90;2.53;;;-2.30;99.90;;;;;;4945432;28;20554;-83
2021/12/10 04:14:44;;;;;;;2.22;2.00;;;-2.30;99.90;;;;;;4945885;28;20038;-84
2021/12/10 04:17:10;;;;;;;4.57;2.60;;;-2.30;99.90;;;;;;4947502;28;20033;-83
2021/12/10 04:19:37;;;;;;;4.55;2.88;;;-2.20;99.90;;;;;;4948377;28;20030;-84
2021/12/10 04:22:06;;;;;;;2.17;2.08;;;-2.20;99.90;;;;;;4948496;28;20049;-83
2021/12/10 04:24:37;;;;;;;5.75;1.92;;;-2.20;99.90;;;;;;4965440;28;20363;-83
2021/12/10 04:27:05;;;;;;;5.93;2.55;;;-2.20;99.90;;;;;;4947946;28;20039;-84
2021/12/10 04:29:31;;;;;;;2.35;2.17;;;-2.20;99.90;;;;;;4948528;28;20027;-83
2021/12/10 04:31:58;;;;;;;2.25;2.08;;;-2.40;99.90;;;;;;4943143;28;20035;-84
2021/12/10 04:34:25;;;;;;;2.13;2.00;;;-2.40;99.90;;;;;;4949819;28;20026;-84
2021/12/10 04:36:54;;;;;;;2.53;1.55;;;-2.40;99.90;;;;;;4947168;28;20050;-84
2021/12/10 04:39:20;;;;;;;2.40;2.25;;;-2.40;99.90;;;;;;4947215;28;20054;-84
2021/12/10 04:41:46;;;;;;;2.33;2.03;;;-2.50;99.90;;;;;;4949516;28;20030;-84
2021/12/10 04:44:13;;;;;;;2.40;2.20;;;-2.60;99.90;;;;;;4964376;28;20427;-84
2021/12/10 04:46:38;;;;;;;2.83;2.63;;;-2.60;99.90;;;;;;4947420;28;20027;-83
2021/12/10 04:49:12;;;;;;;2.33;2.13;;;-2.50;99.90;;;;;;4944728;28;20031;-84
2021/12/10 04:51:45;;;;;;;3.08;1.85;;;-2.50;99.90;;;;;;4946644;28;20030;-83
2021/12/10 04:54:11;;;;;;;1.63;1.52;;;-2.50;99.90;;;;;;4949530;28;20049;-83
2021/12/10 04:56:38;;;;;;;2.33;2.13;;;-2.40;99.90;;;;;;4946544;28;20037;-84
2021/12/10 04:59:07;;;;;;;2.85;1.80;;;-2.30;99.90;;;;;;4946762;28;20105;-84
2021/12/10 05:01:35;;;;;;;4.05;1.88;;;-2.40;99.90;;;;;;4948078;28;20034;-84
2021/12/10 05:04:02;;;;;;;4.03;2.72;;;-2.50;99.90;;;;;;4947492;28;20041;-83
2021/12/10 05:06:27;;;;;;;1.80;1.70;;;-2.60;99.90;;;;;;4946998;28;20031;-84
2021/12/10 05:08:53;;;;;;;3.88;2.30;;;-2.60;99.90;;;;;;4949906;28;20038;-84
2021/12/10 05:11:19;;;;;;;6.00;2.50;;;-2.70;99.90;;;;;;4964259;28;20534;-84
2021/12/10 05:13:47;;;;;;;2.47;2.30;;;-2.60;99.90;;;;;;4947941;28;20081;-83
2021/12/10 05:16:15;;;;;;;1.80;1.70;;;-2.60;99.90;;;;;;4944410;28;20034;-83
2021/12/10 05:18:44;;;;;;;2.70;2.33;;;-2.60;99.90;;;;;;4948229;28;20415;-83
2021/12/10 05:21:12;;;;;;;2.38;2.13;;;-2.70;99.90;;;;;;4942534;28;20123;-84
2021/12/10 05:23:38;;;;;;;1.42;1.35;;;-2.70;99.90;;;;;;4948564;28;20034;-83
2021/12/10 05:26:05;;;;;;;1.80;1.70;;;-2.80;99.90;;;;;;4943014;28;20026;-83
2021/12/10 05:28:32;;;;;;;1.52;1.40;;;-2.70;99.90;;;;;;4945296;28;20348;-84
2021/12/10 05:30:59;;;;;;;5.07;1.70;;;-2.70;99.90;;;;;;4959206;28;20354;-84
2021/12/10 05:33:27;;;;;;;3.13;2.03;;;-2.70;99.90;;;;;;4945329;28;20773;-83
2021/12/10 05:35:54;;;;;;;2.40;2.20;;;-2.70;99.90;;;;;;4944764;28;20181;-83
2021/12/10 05:38:21;;;;;;;2.35;1.77;;;-2.80;99.90;;;;;;4941339;28;20128;-84
2021/12/10 05:40:53;;;;;;;2.33;1.70;;;-3.10;99.90;;;;;;4947142;28;20031;-84
2021/12/10 05:43:19;;;;;;;1.92;1.85;;;-3.10;99.90;;;;;;4948509;28;20430;-84
2021/12/10 05:45:46;;;;;;;2.90;1.70;;;-3.10;99.90;;;;;;4944312;28;20031;-84
2021/12/10 05:48:12;;;;;;;2.28;2.10;;;-3.10;99.90;;;;;;4958256;28;20039;-84
2021/12/10 05:50:38;;;;;;;6.47;2.42;;;-3.10;99.90;;;;;;4961322;28;20027;-83
2021/12/10 05:53:05;;;;;;;12.95;3.03;;;-3.20;99.90;;;;;;4959676;28;20484;-84
2021/12/10 05:55:32;;;;;;;4.15;2.00;;;-3.10;99.90;;;;;;4943674;28;20361;-84
2021/12/10 05:57:58;;;;;;;2.70;1.80;;;-3.20;99.90;;;;;;4942893;28;20029;-84
2021/12/10 06:00:28;;;;;;;1.88;1.77;;;-3.30;99.90;;;;;;4946664;28;20456;-83
2021/12/10 06:02:54;;;;;;;2.97;2.67;;;-3.40;99.90;;;;;;4945783;28;20027;-83
2021/12/10 06:05:21;;;;;;;1.95;1.85;;;-3.40;99.90;;;;;;4944564;28;20034;-84
2021/12/10 06:07:47;;;;;;;2.70;2.50;;;-3.40;99.90;;;;;;4958477;28;20468;-84
2021/12/10 06:10:16;;;;;;;3.25;2.13;;;-3.40;99.90;;;;;;4940311;28;20539;-84
2021/12/10 06:12:43;;;;;;;3.03;2.63;;;-3.30;99.90;;;;;;4944106;28;20035;-82
2021/12/10 06:15:10;;;;;;;3.00;2.10;;;-3.20;99.90;;;;;;4942745;28;20046;-84
2021/12/10 06:17:36;;;;;;;2.85;2.60;;;-3.30;99.90;;;;;;4945701;28;20725;-84
2021/12/10 06:20:05;;;;;;;4.88;2.40;;;-3.10;99.90;;;;;;4945762;28;20054;-84
2021/12/10 06:22:31;;;;;;;2.75;2.55;;;-3.10;99.90;;;;;;4959199;28;20030;-84
2021/12/10 06:24:57;;;;;;;5.40;2.65;;;-3.10;99.90;;;;;;4960970;28;21049;-84
2021/12/10 06:27:22;;;;;;;3.50;2.50;;;-3.00;99.90;;;;;;4947032;28;20038;-84
2021/12/10 06:29:48;;;;;;;3.38;2.75;;;-3.00;99.90;;;;;;4941703;28;20031;-84
2021/12/10 06:32:14;;;;;;;2.70;2.60;;;-3.00;99.90;;;;;;4937894;28;20038;-84
2021/12/10 06:34:40;;;;;;;5.72;3.45;;;-3.00;99.90;;;;;;4962120;28;20118;-84
2021/12/10 06:37:06;;;;;;;4.88;2.45;;;-3.00;99.90;;;;;;4961470;28;20063;-85
2021/12/10 06:39:32;;;;;;;6.40;2.20;;;-3.00;99.90;;;;;;4945495;28;20543;-84
2021/12/10 06:41:58;;;;;;;2.30;2.10;;;-3.00;99.90;;;;;;4946884;28;20026;-84
2021/12/10 06:44:24;;;;;;;2.53;2.33;;;-3.10;99.90;;;;;;4940605;28;20029;-84
2021/12/10 06:46:51;;;;;;;3.33;2.25;;;-3.00;99.90;;;;;;4939605;28;20055;-84
2021/12/10 06:49:18;;;;;;;21.98;4.53;;;-2.90;99.90;;;;;;4942642;28;20068;-84
2021/12/10 06:51:44;;;;;;;6.72;3.90;;;-2.90;99.90;;;;;;4944684;28;20149;-84
2021/12/10 06:54:11;;;;;;;8.60;7.35;;;-2.80;99.90;;;;;;4931422;28;20026;-84
2021/12/10 06:56:37;;;;;;;5.78;2.70;;;-2.80;99.90;;;;;;4939537;28;21048;-84
2021/12/10 06:59:06;;;;;;;5.68;3.90;;;-2.80;99.90;;;;;;4944851;28;20493;-84
2021/12/10 07:01:36;;;;;;;14.07;2.95;;;-2.70;99.90;;;;;;4957686;28;20039;-84
2021/12/10 07:04:04;;;;;;;9.63;4.03;;;-3.00;99.90;;;;;;4948726;28;20370;-84
2021/12/10 07:06:30;;;;;;;;;;;-3.50;99.90;;;;;;4958920;28;20488;-85
2021/12/10 07:08:58;;;;;;;2.05;1.85;;;-3.50;99.90;;;;;;4946068;28;20057;-84
2021/12/10 07:11:26;;;;;;;4.15;2.72;;;-3.30;99.90;;;;;;4947496;28;20048;-85
2021/12/10 07:13:54;;;;;;;4.97;2.92;;;-3.30;99.90;;;;;;4955691;28;20043;-84
2021/12/10 07:16:22;;;;;;;2.00;1.55;;;-3.20;99.90;;;;;;4948712;28;20435;-84
2021/12/10 07:18:48;;;;;;;2.65;2.25;;;-3.20;99.90;;;;;;4944072;28;20129;-84
2021/12/10 07:21:14;;;;;;;2.83;2.60;;;-3.10;99.90;;;;;;4967309;28;20038;-82
2021/12/10 07:23:42;;;;;;;2.28;2.10;;;-3.10;99.90;;;;;;4949308;28;20031;-82
2021/12/10 07:26:12;;;;;;;7.47;4.05;;;-3.10;99.90;;;;;;4949982;28;20114;-82
2021/12/10 07:28:38;;;;;;;5.70;3.83;;;-3.10;99.90;;;;;;4965801;28;20102;-81
2021/12/10 07:31:06;;;;;;;12.30;8.48;;;-3.10;99.90;;;;;;4965051;28;20039;-81
2021/12/10 07:33:32;;;;;;;8.32;4.05;;;-3.10;99.90;;;;;;4951964;28;20046;-82
2021/12/10 07:35:58;;;;;;;2.78;2.58;;;-3.10;99.90;;;;;;4959296;28;20051;-81
2021/12/10 07:38:24;;;;;;;3.08;2.42;;;-3.30;99.90;;;;;;4938234;28;20046;-81
2021/12/10 07:40:51;;;;;;;9.60;3.03;;;-3.40;99.90;;;;;;4948854;28;20114;-81
2021/12/10 07:43:17;;;;;;;3.78;3.00;;;-3.40;99.90;;;;;;4949205;28;20035;-81
2021/12/10 07:45:46;;;;;;;9.02;4.25;;;-3.40;99.90;;;;;;4948143;28;20097;-81
2021/12/10 07:48:15;;;;;;;7.00;4.05;;;-3.40;99.90;;;;;;4945445;28;20035;-82
2021/12/10 07:50:49;;;;;;;6.53;4.15;;;-3.40;99.90;;;;;;4956383;28;20059;-82
2021/12/10 07:53:18;;;;;;;4.65;3.42;;;-3.40;99.90;;;;;;4947044;28;20143;-82
2021/12/10 07:55:43;;;;;;;7.57;3.92;;;-3.30;99.90;;;;;;4946889;28;20607;-83
2021/12/10 07:58:09;;;;;;;3.33;3.08;;;-3.40;99.90;;;;;;4947896;28;20035;-83
2021/12/10 08:00:39;;;;;;;6.28;3.15;;;-3.30;99.90;;;;;;4948254;28;20023;-83
2021/12/10 08:03:06;;;;;;;7.78;3.70;;;-3.30;99.90;;;;;;4963275;28;20027;-83
2021/12/10 08:05:32;;;;;;;4.82;3.28;;;-3.20;99.90;;;;;;4941028;28;20038;-82
2021/12/10 08:07:59;;;;;;;4.50;4.10;;;-3.10;99.90;;;;;;4946936;28;20066;-82
2021/12/10 08:10:27;;;;;;;2.78;2.50;;;-3.10;99.90;;;;;;4963546;28;20027;-83
2021/12/10 08:12:53;;;;;;;;;;;-3.00;99.90;;;;;;4947620;28;20118;-83
2021/12/10 08:15:18;;;;;;;4.70;4.20;;;-2.90;99.90;;;;;;4959548;28;20016;-83
2021/12/10 08:17:45;;;;;;;6.55;4.10;;;-2.90;99.90;;;;;;4950012;28;20078;-83
2021/12/10 08:20:14;;;;;;;4.35;2.95;;;-2.90;99.90;;;;;;4951050;28;20758;-83
2021/12/10 08:22:41;;;;;;;4.50;3.17;;;-2.80;99.90;;;;;;4967126;28;20035;-83
2021/12/10 08:25:08;;;;;;;5.50;3.80;;;-2.80;99.90;;;;;;4954625;28;20440;-82
2021/12/10 08:27:33;;;;;;;7.70;4.47;;;-2.90;99.90;;;;;;4951477;28;20122;-83
2021/12/10 08:30:03;;;;;;;6.20;3.83;;;-3.00;99.90;;;;;;4953069;28;20058;-83
2021/12/10 08:32:31;;;;;;;3.85;3.55;;;-3.00;99.90;;;;;;4969164;28;20043;-84
2021/12/10 08:34:58;;;;;;;4.15;3.83;;;-2.90;99.90;;;;;;4946790;28;20420;-82
2021/12/10 08:37:23;;;;;;;6.80;6.05;;;-2.90;99.90;;;;;;4944379;28;20038;-82
2021/12/10 08:39:50;;;;;;;10.77;4.60;;;-2.80;99.90;;;;;;4943249;28;20027;-82
2021/12/10 08:42:16;;;;;;;5.47;4.97;;;-2.90;99.90;;;;;;4944697;28;20039;-83
2021/12/10 08:44:44;;;;;;;4.80;3.35;;;-2.90;99.90;;;;;;4947627;28;20034;-83
2021/12/10 08:47:12;;;;;;;4.13;3.63;;;-2.90;99.90;;;;;;4944624;28;20441;-83
2021/12/10 08:49:40;;;;;;;8.93;4.03;;;-2.80;99.90;;;;;;4943175;28;20384;-83
2021/12/10 08:52:08;;;;;;;6.53;4.28;;;-2.80;99.90;;;;;;4956146;28;20106;-83
2021/12/10 08:54:35;;;;;;;3.65;3.40;;;-2.90;99.90;;;;;;4947009;28;20554;-83
2021/12/10 08:57:02;;;;;;;7.90;4.93;;;-2.80;99.90;;;;;;4945669;28;20039;-82
2021/12/10 08:59:28;;;;;;;4.72;3.38;;;-2.70;99.90;;;;;;4940168;28;20034;-83
2021/12/10 09:01:57;;;;;;;4.63;3.95;;;-2.60;99.90;;;;;;4944567;28;20061;-83
2021/12/10 09:04:24;;;;;;;5.38;4.13;;;-2.60;99.90;;;;;;4963618;28;20059;-83
2021/12/10 09:06:55;;;;;;;3.63;3.28;;;-2.50;99.90;;;;;;4939650;29;20027;-82
2021/12/10 09:09:22;;;;;;;7.80;4.00;;;-2.50;99.90;;;;;;4945930;28;20059;-82
2021/12/10 09:11:54;;;;;;;5.93;3.08;;;-2.50;99.90;;;;;;4941523;28;20027;-82
2021/12/10 09:14:24;;;;;;;3.85;2.92;;;-2.50;99.90;;;;;;4936225;28;20024;-82
2021/12/10 09:16:50;;;;;;;3.60;2.40;;;-2.30;99.90;;;;;;4960815;28;20031;-82
2021/12/10 09:19:17;;;;;;;4.88;2.92;;;-2.10;99.90;;;;;;4939604;28;20485;-82
2021/12/10 09:21:43;;;;;;;3.53;2.33;;;-2.00;99.90;;;;;;4957836;28;20134;-82
2021/12/10 09:24:11;;;;;;;3.15;2.88;;;-1.90;99.90;;;;;;4939687;28;20042;-82
2021/12/10 09:26:41;;;;;;;8.68;5.18;;;-1.90;99.90;;;;;;4946001;28;20032;-82
2021/12/10 09:29:09;;;;;;;4.70;2.53;;;-1.80;99.90;;;;;;4942700;28;20035;-82
2021/12/10 09:31:36;;;;;;;;;;;-1.70;99.90;;;;;;4956172;28;20043;-82
2021/12/10 09:34:02;;;;;;;7.60;3.47;;;-1.70;99.90;;;;;;4941804;28;19919;-82
2021/12/10 09:36:29;;;;;;;2.65;2.45;;;-1.60;99.90;;;;;;4941909;28;20126;-83
2021/12/10 09:38:56;;;;;;;7.65;1.85;;;-1.60;99.90;;;;;;4946451;28;20308;-83
2021/12/10 09:41:23;;;;;;;3.70;2.15;;;-1.60;99.90;;;;;;4939738;28;20046;-83
2021/12/10 09:43:50;;;;;;;2.30;2.10;;;-1.50;99.90;;;;;;4937007;28;20700;-83
2021/12/10 09:46:16;;;;;;;2.88;2.40;;;-1.50;99.90;;;;;;4936078;28;20373;-83
2021/12/10 09:48:43;;;;;;;3.55;1.88;;;-1.40;99.90;;;;;;4946905;28;20034;-82
2021/12/10 09:51:11;;;;;;;2.15;2.05;;;-1.40;99.90;;;;;;4940033;28;20035;-82
2021/12/10 09:53:40;;;;;;;2.45;2.17;;;-1.40;99.90;;;;;;4936916;28;20074;-82
2021/12/10 09:56:06;;;;;;;;;;;-1.30;99.90;;;;;;4938353;28;20074;-83
2021/12/10 09:58:32;;;;;;;1.98;1.88;;;-1.20;99.90;;;;;;4937377;28;20009;-83
2021/12/10 10:01:05;;;;;;;2.17;1.98;;;-1.20;99.90;;;;;;4936206;28;20039;-82
2021/12/10 10:03:43;;;;;;;1.48;1.48;;;-1.20;99.90;;;;;;4938971;28;20102;-83
2021/12/10 10:06:11;;;;;;;1.87;1.70;;;-1.20;99.90;;;;;;4934062;28;20037;-83
2021/12/10 10:08:37;;;;;;;2.97;2.78;;;-1.10;99.90;;;;;;4939727;28;20441;-83
2021/12/10 10:11:20;;;;;;;3.42;2.58;;;-1.00;99.90;;;;;;4937565;28;20114;-83
2021/12/10 10:13:49;;;;;;;2.28;2.00;;;-1.00;99.90;;;;;;4951678;28;20035;-82
2021/12/10 10:16:15;;;;;;;1.98;1.80;;;-1.00;99.90;;;;;;4939845;28;20093;-83
2021/12/10 10:18:45;;;;;;;3.45;2.03;;;-0.90;99.90;;;;;;4937037;28;20039;-82
2021/12/10 10:21:15;;;;;;;2.22;2.10;;;-0.90;99.90;;;;;;4941504;28;20035;-83
2021/12/10 10:23:43;;;;;;;3.00;2.70;;;-0.80;99.90;;;;;;4939388;28;20031;-83
2021/12/10 10:26:15;;;;;;;3.08;2.45;;;-0.80;99.90;;;;;;4941290;28;21395;-83
2021/12/10 10:28:41;;;;;;;1.95;1.80;;;-0.80;99.90;;;;;;4939215;28;20114;-83
2021/12/10 10:31:14;;;;;;;3.80;2.30;;;-0.70;99.90;;;;;;4940234;28;22528;-83
2021/12/10 10:33:41;;;;;;;1.88;1.77;;;-0.70;99.90;;;;;;4940595;28;20527;-83
2021/12/10 10:36:17;;;;;;;1.98;1.85;;;-0.70;99.90;;;;;;4939280;28;20728;-84
2021/12/10 10:38:47;;;;;;;2.20;2.00;;;-0.70;99.90;;;;;;4940023;28;20082;-84
2021/12/10 10:41:14;;;;;;;2.30;2.10;;;-0.60;99.90;;;;;;4939360;28;21065;-84
2021/12/10 10:43:40;;;;;;;2.83;2.60;;;-0.70;99.90;;;;;;4934504;28;20020;-84
2021/12/10 10:46:06;;;;;;;1.92;1.83;;;-0.70;99.90;;;;;;4935069;28;20046;-84
2021/12/10 10:48:33;;;;;;;1.75;1.65;;;-0.60;99.90;;;;;;4941549;28;21537;-84
2021/12/10 10:51:09;;;;;;;2.53;1.90;;;-0.60;99.90;;;;;;4944267;28;20568;-84
2021/12/10 10:53:49;;;;;;;2.25;2.08;;;-0.60;99.90;;;;;;4958808;28;20066;-84
2021/12/10 10:56:18;;;;;;;2.38;1.95;;;-0.50;99.90;;;;;;4956958;28;20050;-84
2021/12/10 10:58:55;;;;;;;2.40;1.92;;;-0.50;99.90;;;;;;4942463;28;20041;-83
2021/12/10 11:01:33;;;;;;;2.75;2.53;;;-0.50;99.90;;;;;;4932584;28;20120;-83
2021/12/10 11:04:07;;;;;;;3.30;2.42;;;-0.50;99.90;;;;;;4955479;28;20038;-83
2021/12/10 11:06:39;;;;;;;5.63;3.85;;;-0.50;99.90;;;;;;4941690;28;20460;-83
2021/12/10 11:09:27;;;;;;;10.02;5.30;;;-0.40;99.90;;;;;;4942696;28;20082;-83
2021/12/10 11:11:55;;;;;;;;;;;-0.40;99.90;;;;;;4939531;28;20019;-83
2021/12/10 11:14:32;;;;;;;2.72;2.53;;;-0.30;99.90;;;;;;4940721;28;19929;-83
2021/12/10 11:17:15;;;;;;;4.13;3.43;;;-0.30;99.90;;;;;;4942541;28;20057;-83
2021/12/10 11:19:59;;;;;;;4.03;3.63;;;-0.30;99.90;;;;;;4940268;28;20399;-83
2021/12/10 11:22:27;;;;;;;4.28;3.88;;;-0.30;99.90;;;;;;4941261;28;20031;-83
2021/12/10 11:25:10;;;;;;;2.92;2.72;;;-0.30;99.90;;;;;;4942526;28;20023;-83
2021/12/10 11:27:39;;;;;;;2.88;2.55;;;-0.30;99.90;;;;;;4957257;28;20035;-83
2021/12/10 11:30:13;;;;;;;2.08;1.92;;;-0.30;99.90;;;;;;4949340;28;20028;-82
2021/12/10 11:33:03;;;;;;;1.92;1.80;;;-0.30;99.90;;;;;;4941620;28;20478;-83
2021/12/10 11:35:34;;;;;;;3.15;2.17;;;-0.20;99.90;;;;;;4940582;28;20373;-83
2021/12/10 11:38:09;;;;;;;2.45;2.30;;;-0.30;99.90;;;;;;4941597;28;20685;-83
2021/12/10 11:40:40;;;;;;;3.42;1.85;;;-0.20;99.90;;;;;;4943023;28;20405;-84
2021/12/10 11:43:44;;;;;;;2.60;2.42;;;-0.20;99.90;;;;;;4935693;28;20046;-83
2021/12/10 11:48:54;;;;;;;2.10;2.00;;;-0.20;99.90;;;;;;4942043;28;20038;-83
2021/12/10 11:51:30;;;;;;;1.98;1.60;;;-0.10;99.90;;;;;;4936805;28;20058;-83
2021/12/10 11:53:59;;;;;;;3.22;1.98;;;-0.20;99.90;;;;;;4941871;28;20101;-83
2021/12/10 11:56:37;;;;;;;2.08;1.88;;;-0.10;99.90;;;;;;4951863;28;20126;-83
2021/12/10 11:59:16;;;;;;;2.00;1.90;;;-0.10;99.90;;;;;;4939717;28;20045;-83
2021/12/10 12:01:54;;;;;;;2.50;2.28;;;-0.10;99.90;;;;;;4940375;28;20113;-83
2021/12/10 12:04:44;;;;;;;2.78;2.28;;;0.00;99.90;;;;;;4940750;28;20570;-83
2021/12/10 12:07:22;;;;;;;3.40;2.10;;;0.00;99.90;;;;;;4937411;28;20834;-83
2021/12/10 12:09:55;;;;;;;2.58;2.33;;;-0.10;99.90;;;;;;4957751;28;20031;-83
2021/12/10 12:12:27;;;;;;;7.55;2.40;;;0.00;99.90;;;;;;4942201;28;20039;-83
2021/12/10 12:15:06;;;;;;;2.67;2.40;;;0.00;99.90;;;;;;4940346;28;20127;-83
2021/12/10 12:17:34;;;;;;;3.22;2.85;;;0.00;99.90;;;;;;4947745;28;20389;-83
2021/12/10 12:20:01;;;;;;;2.53;2.33;;;0.00;99.90;;;;;;4940164;28;20062;-83
2021/12/10 12:25:32;;;;;;;7.00;2.78;;;0.10;99.90;;;;;;4939471;28;20047;-83
2021/12/10 12:28:10;;;;;;;2.70;2.17;;;0.10;99.90;;;;;;4953842;28;20154;-83
2021/12/10 12:30:53;;;;;;;2.50;2.30;;;0.00;99.90;;;;;;4937942;28;20090;-83
2021/12/10 12:33:21;;;;;;;2.45;2.25;;;0.00;99.90;;;;;;4955806;28;20110;-83
2021/12/10 12:35:48;;;;;;;3.47;2.60;;;0.00;99.90;;;;;;4940604;28;20047;-83
2021/12/10 12:38:22;;;;;;;3.35;2.72;;;0.10;99.90;;;;;;4938835;28;20046;-83
2021/12/10 12:41:09;;;;;;;2.72;2.50;;;0.10;99.90;;;;;;4940742;28;20464;-83
2021/12/10 12:43:37;;;;;;;3.22;2.40;;;0.20;99.90;;;;;;4939856;28;20484;-84
2021/12/10 12:46:05;;;;;;;2.50;2.30;;;0.20;99.90;;;;;;4941060;28;20125;-83
2021/12/10 12:48:31;;;;;;;2.75;2.53;;;0.30;99.90;;;;;;4938345;28;20030;-83
2021/12/10 12:51:02;;;;;;;2.13;1.92;;;0.20;99.90;;;;;;4939631;28;20043;-83
2021/12/10 12:53:33;;;;;;;4.68;2.63;;;0.20;99.90;;;;;;4939733;28;20027;-84
2021/12/10 12:56:10;;;;;;;3.40;2.13;;;0.20;99.90;;;;;;4938718;28;20031;-84
2021/12/10 12:58:41;;;;;;;2.00;1.90;;;0.30;99.90;;;;;;4955744;28;20027;-83
2021/12/10 13:01:33;;;;;;;2.85;2.28;;;0.30;99.90;;;;;;4940392;28;20039;-83
2021/12/10 13:04:33;;;;;;;2.50;2.20;;;0.30;99.90;;;;;;4940134;28;21597;-83
2021/12/10 13:07:13;;;;;;;2.40;2.20;;;0.20;99.90;;;;;;4936367;28;20034;-83
2021/12/10 13:09:51;;;;;;;2.30;2.13;;;0.20;99.90;;;;;;4954962;28;20038;-84
2021/12/10 13:15:06;;;;;;;3.53;2.50;;;0.20;99.90;;;;;;4941803;28;20147;-84
2021/12/10 13:17:37;;;;;;;5.05;3.15;;;0.20;99.90;;;;;;4938543;28;20038;-85
2021/12/10 13:20:12;;;;;;;2.83;2.50;;;0.30;99.90;;;;;;4938571;28;20537;-85
2021/12/10 13:22:39;;;;;;;3.03;2.28;;;0.30;99.90;;;;;;4936720;28;20052;-84